Latest Weather Observations for Gosford

IDN60901

Issued at 10:02 pm EDT Tuesday 3 March 2015 (issued every 10 minutes, with the page automatically refreshed every 10 minutes)

About weather observations | Map of Sydney area stations | Latest observations for Sydney area | Other Formats
Station Details ID: 061425 Name: GOSFORD AWS Lat: -33.44 Lon: 151.36 Height: 7.0 m
Data from the previous 72 hours. | See also: Recent months at Gosford
Date/Time
EDT
Tmp

°C
App
Tmp
°C
Dew
Point
°C
Rel
Hum
%
Delta-T

°C
Wind Press
QNH
hPa
Press
MSL
hPa
Rain
since
9 am
mm
Dir
 
Spd
km/h
Gust
km/h
Spd
kts
Gust
kts
03/10:00pm 22.6 25.0 18.8 79 2.4 E 4 7 2 4 - - 0.0
03/09:30pm 22.8 24.8 18.8 78 2.5 ENE 6 7 3 4 - - 0.0
03/09:00pm 22.7 24.8 18.9 79 2.4 ENE 6 9 3 5 - - 0.0
03/08:30pm 22.8 24.8 18.8 78 2.5 ENE 6 9 3 5 - - 0.0
03/08:00pm 22.7 24.5 18.3 76 2.8 ENE 6 13 3 7 - - 0.0
03/07:30pm 23.0 24.8 18.3 75 2.9 NE 6 11 3 6 - - 0.0
03/07:00pm 23.1 24.7 18.2 74 3.1 NE 7 13 4 7 - - 0.0
03/06:30pm 23.1 24.3 18.2 74 3.1 NE 9 17 5 9 - - 0.0
03/06:00pm 23.3 24.4 18.0 72 3.3 NE 9 20 5 11 - - 0.0
03/05:30pm 23.9 24.6 17.9 69 3.8 ENE 11 20 6 11 - - 0.0
03/05:00pm 24.6 24.6 17.3 64 4.5 ENE 13 22 7 12 - - 0.0
03/04:30pm 25.1 24.3 17.1 61 5.0 NE 17 24 9 13 - - 0.0
03/04:00pm 25.7 25.4 17.4 60 5.2 ENE 15 24 8 13 - - 0.0
03/03:30pm 25.4 25.1 17.3 61 5.0 E 15 22 8 12 - - 0.0
03/03:00pm 26.5 26.9 18.9 63 4.9 ENE 15 22 8 12 - - 0.0
03/02:30pm 25.6 25.3 17.3 60 5.2 E 15 24 8 13 - - 0.0
03/02:00pm 25.3 24.3 17.5 62 4.9 E 19 28 10 15 - - 0.0
03/01:30pm 25.7 25.1 17.6 61 5.1 E 17 28 9 15 - - 0.0
03/01:00pm 27.2 28.4 18.2 58 5.7 E 9 15 5 8 - - 0.0
03/12:30pm 27.1 28.3 17.3 55 6.1 NE 7 17 4 9 - - 0.0
03/12:00pm 26.3 27.2 16.5 54 6.0 NNE 7 22 4 12 - - 0.0
03/11:30am 25.1 25.2 15.4 55 5.9 N 9 17 5 9 - - 0.0
03/11:00am 25.1 25.9 16.3 58 5.4 N 7 13 4 7 - - 0.0
03/10:30am 24.3 24.8 15.5 58 5.3 N 7 15 4 8 - - 0.0
03/10:00am 23.1 23.7 15.7 63 4.5 NNW 7 11 4 6 - - 0.0
03/09:30am 22.0 23.0 15.4 66 3.9 N 4 9 2 5 - - 0.0
03/09:00am 19.7 21.3 14.9 74 2.8 CALM 0 0 0 0 - - 0.0
03/08:30am 17.4 19.0 14.9 85 1.4 CALM 0 0 0 0 - - 0.0
03/08:00am 16.3 18.0 15.2 93 0.6 CALM 0 0 0 0 - - 0.0
03/07:30am 14.8 16.2 14.5 98 0.2 CALM 0 0 0 0 - - 0.0
03/07:00am 13.9 15.0 13.4 97 0.3 CALM 0 0 0 0 - - 0.0
03/06:30am 13.6 14.5 13.0 96 0.3 CALM 0 0 0 0 - - 0.0
03/06:00am 13.6 14.5 13.0 96 0.3 CALM 0 0 0 0 - - 0.0
03/05:30am 13.8 14.8 13.2 96 0.3 CALM 0 0 0 0 - - 0.0
03/05:00am 13.9 14.9 13.3 96 0.3 CALM 0 0 0 0 - - 0.0
03/04:30am 14.0 15.1 13.4 96 0.3 CALM 0 0 0 0 - - 0.0
03/04:00am 13.9 14.9 13.1 95 0.4 CALM 0 0 0 0 - - 0.0
03/03:30am 14.4 15.5 13.6 95 0.4 CALM 0 0 0 0 - - 0.0
03/03:00am 14.3 15.4 13.5 95 0.4 CALM 0 0 0 0 - - 0.0
03/02:30am 14.6 15.8 13.8 95 0.4 CALM 0 0 0 0 - - 0.0
03/02:00am 14.8 16.0 13.8 94 0.6 CALM 0 0 0 0 - - 0.0
03/01:30am 15.1 16.4 14.1 94 0.6 CALM 0 0 0 0 - - 0.0
03/01:00am 15.3 16.6 14.2 93 0.6 CALM 0 0 0 0 - - 0.0
03/12:30am 15.4 16.7 14.1 92 0.7 CALM 0 0 0 0 - - 0.0
03/12:00am 15.8 17.2 14.5 92 0.7 CALM 0 0 0 0 - - 0.0
 
Date/Time
EDT
Tmp

°C
App
Tmp
°C
Dew
Point
°C
Rel
Hum
%
Delta-T

°C
Wind Press
QNH
hPa
Press
MSL
hPa
Rain
since
9 am
mm
Dir
 
Spd
km/h
Gust
km/h
Spd
kts
Gust
kts
02/11:30pm 16.0 17.4 14.5 91 0.9 CALM 0 0 0 0 - - 0.0
02/11:00pm 16.1 17.6 14.6 91 0.9 CALM 0 0 0 0 - - 0.0
02/10:30pm 16.5 18.1 14.9 90 0.9 CALM 0 0 0 0 - - 0.0
02/10:00pm 16.9 18.4 14.7 87 1.3 CALM 0 0 0 0 - - 0.0
02/09:30pm 17.4 18.8 14.5 83 1.7 CALM 0 2 0 1 - - 0.0
02/09:00pm 17.8 19.5 15.1 84 1.6 CALM 0 0 0 0 - - 0.0
02/08:30pm 18.8 20.3 14.7 77 2.4 CALM 0 0 0 0 - - 0.0
02/08:00pm 19.5 20.6 14.5 73 2.9 N 2 4 1 2 - - 0.0
02/07:30pm 20.8 22.2 14.5 67 3.7 CALM 0 0 0 0 - - 0.0
02/07:00pm 21.8 22.3 13.9 61 4.6 ENE 4 6 2 3 - - 0.0
02/06:30pm 22.5 22.8 14.4 60 4.8 E 6 9 3 5 - - 0.0
02/06:00pm 22.4 22.5 14.0 59 4.9 E 6 7 3 4 - - 0.0
02/05:30pm 22.6 22.6 14.2 59 4.9 ESE 7 13 4 7 - - 0.0
02/05:00pm 22.6 22.1 13.9 58 5.1 ESE 9 15 5 8 - - 0.0
02/04:30pm 22.8 22.8 15.1 62 4.6 ESE 9 15 5 8 - - 0.0
02/04:00pm 22.9 23.8 16.2 66 4.1 SE 6 13 3 7 - - 0.0
02/03:30pm 22.5 23.6 17.2 72 3.3 SSE 7 11 4 6 - - 0.0
02/03:00pm 22.8 24.2 17.9 74 3.1 SSE 7 15 4 8 - - 0.0
02/02:30pm 22.9 23.7 17.4 71 3.4 SSE 9 17 5 9 - - 0.0
02/02:00pm 22.6 22.6 17.3 72 3.3 S 13 20 7 11 - - 0.0
02/01:30pm 22.3 22.3 17.2 73 3.1 S 13 19 7 10 - - 0.0
02/01:00pm 21.5 22.0 16.5 73 3.0 S 9 15 5 8 - - 0.0
02/12:30pm 21.1 21.0 15.9 72 3.1 S 11 24 6 13 - - 0.0
02/12:00pm 21.5 21.7 15.8 70 3.4 S 9 17 5 9 - - 0.0
02/11:30am 21.4 21.5 15.5 69 3.5 SSE 9 15 5 8 - - 0.0
02/11:00am 21.3 21.7 15.2 68 3.6 SSW 7 13 4 7 - - 0.0
02/10:30am 21.1 21.5 14.7 67 3.8 SSW 6 11 3 6 - - 0.0
02/10:00am 20.7 21.0 15.0 70 3.4 SW 7 13 4 7 - - 0.0
02/09:30am 20.0 19.3 14.4 70 3.3 SW 11 17 6 9 - - 0.0
02/09:00am 19.6 18.7 13.8 69 3.3 SW 11 20 6 11 - - 8.2
02/08:30am 19.5 18.2 13.7 69 3.3 SW 13 20 7 11 - - 8.2
02/08:00am 19.3 18.8 13.7 70 3.2 SW 9 15 5 8 - - 8.2
02/07:30am 19.2 18.6 13.6 70 3.2 SW 9 19 5 10 - - 8.2
02/07:00am 19.4 19.0 14.0 71 3.1 SW 9 17 5 9 - - 8.2
02/06:30am 19.7 18.9 14.1 70 3.2 SW 11 17 6 9 - - 8.2
02/06:00am 20.8 19.8 14.5 67 3.7 SSW 13 20 7 11 - - 8.2
02/05:30am 21.1 20.5 14.7 67 3.8 SSW 11 17 6 9 - - 8.2
02/05:00am 20.6 20.5 14.9 70 3.3 SSE 9 15 5 8 - - 8.2
02/04:30am 21.3 19.7 14.0 63 4.2 SSE 15 24 8 13 - - 8.2
02/04:00am 21.6 20.2 13.5 60 4.7 S 13 24 7 13 - - 8.2
02/03:30am 21.7 20.2 13.1 58 4.9 S 13 22 7 12 - - 8.2
02/03:00am 21.6 20.3 13.8 61 4.5 S 13 24 7 13 - - 8.2
02/02:30am 21.1 19.4 14.7 67 3.8 SSE 17 24 9 13 - - 8.2
02/02:00am 21.4 19.5 14.3 64 4.1 S 17 26 9 14 - - 8.2
02/01:30am 21.5 18.7 14.2 63 4.3 S 22 39 12 21 - - 8.2
02/01:00am 21.5 18.8 14.6 65 4.0 S 22 33 12 18 - - 8.2
02/12:30am 21.7 18.9 14.4 63 4.3 S 22 37 12 20 - - 8.2
02/12:00am 21.8 19.3 15.2 66 3.9 S 22 35 12 19 - - 8.2
 
Date/Time
EDT
Tmp

°C
App
Tmp
°C
Dew
Point
°C
Rel
Hum
%
Delta-T

°C
Wind Press
QNH
hPa
Press
MSL
hPa
Rain
since
9 am
mm
Dir
 
Spd
km/h
Gust
km/h
Spd
kts
Gust
kts
01/11:30pm 22.0 18.8 15.4 66 3.9 S 26 44 14 24 - - 8.2
01/11:00pm 22.0 19.7 15.6 67 3.8 S 22 39 12 21 - - 8.2
01/10:30pm 22.0 19.5 16.1 69 3.6 S 24 37 13 20 - - 8.2
01/10:00pm 21.9 19.2 16.6 72 3.2 S 26 39 14 21 - - 8.2
01/09:30pm 21.3 19.5 16.9 76 2.7 S 22 35 12 19 - - 8.2
01/09:00pm 20.7 18.2 18.8 89 1.2 S 30 43 16 23 - - 8.2
01/08:30pm 21.4 19.8 19.3 88 1.3 S 26 39 14 21 - - 8.2
01/08:02pm 21.6 19.9 19.7 89 1.2 S 28 46 15 25 - - 8.0
01/08:00pm 21.5 20.1 19.6 89 1.2 S 26 46 14 25 - - 8.0
01/07:41pm 21.6 19.9 19.9 90 1.1 S 28 46 15 25 - - 8.0
01/07:30pm 22.3 22.6 20.4 89 1.2 S 19 39 10 21 - - 7.8
01/07:00pm 22.4 22.4 21.0 92 0.9 S 22 35 12 19 - - 7.8
01/06:30pm 22.0 22.0 21.0 94 0.7 SSE 22 39 12 21 - - 7.6
01/06:00pm 21.9 22.3 20.9 94 0.7 S 20 41 11 22 - - 6.4
01/05:30pm 22.8 20.6 20.7 88 1.4 S 33 61 18 33 - - 0.2
01/05:07pm 24.7 25.3 21.0 80 2.4 SSE 19 46 10 25 - - 0.2
01/05:06pm 25.0 26.0 21.1 79 2.6 SSE 17 46 9 25 - - 0.2
01/05:00pm 25.4 26.8 21.9 81 2.3 SE 17 41 9 22 - - 0.2
01/04:48pm 26.1 25.0 21.1 74 3.3 SSW 28 57 15 31 - - 0.0
01/04:30pm 29.1 31.9 21.6 64 5.0 E 9 13 5 7 - - 0.0
01/04:00pm 30.9 31.2 20.5 54 6.9 ENE 19 24 10 13 - - 0.0
01/03:30pm 32.8 33.9 21.3 50 7.8 ENE 17 24 9 13 - - 0.0
01/03:00pm 34.2 35.9 22.3 50 8.2 E 17 24 9 13 - - 0.0
01/02:30pm 36.0 37.2 19.0 36 11.2 WSW 11 19 6 10 - - 0.0
01/02:00pm 35.4 36.1 18.9 37 10.9 WNW 13 24 7 13 - - 0.0
01/01:30pm 34.9 35.8 19.3 40 10.3 WNW 13 24 7 13 - - 0.0
01/01:00pm 34.3 34.9 20.3 44 9.4 WNW 17 28 9 15 - - 0.0
01/12:30pm 33.5 35.3 20.3 46 8.8 NW 11 22 6 12 - - 0.0
01/12:00pm 32.7 34.4 20.9 49 7.9 NNW 13 22 7 12 - - 0.0
01/11:30am 32.0 33.8 20.3 50 7.8 NNW 11 17 6 9 - - 0.0
01/11:00am 31.3 32.5 19.9 50 7.5 WNW 13 19 7 10 - - 0.0
01/10:30am 30.5 34.3 21.6 59 6.0 N 4 7 2 4 - - 0.0
01/10:00am 28.9 32.8 21.9 66 4.7 N 4 9 2 5 - - 0.0
01/09:30am 26.6 31.3 22.0 76 3.1 CALM 0 4 0 2 - - 0.0
01/09:00am 23.6 27.6 20.5 83 2.0 CALM 0 2 0 1 - - 0.0
01/08:30am 22.6 26.8 20.9 90 1.1 CALM 0 0 0 0 - - 0.0
01/08:00am 21.3 25.3 20.6 96 0.5 CALM 0 0 0 0 - - 0.0
01/07:30am 19.7 23.1 19.4 98 0.2 CALM 0 0 0 0 - - 0.0
01/07:00am 18.7 21.6 18.2 97 0.3 CALM 0 0 0 0 - - 0.0
01/06:30am 18.8 21.7 18.3 97 0.3 CALM 0 0 0 0 - - 0.0
01/06:00am 18.8 21.7 18.3 97 0.3 CALM 0 0 0 0 - - 0.0
01/05:30am 18.7 21.5 18.0 96 0.4 CALM 0 0 0 0 - - 0.0
01/05:00am 19.1 22.1 18.4 96 0.4 CALM 0 0 0 0 - - 0.0
01/04:30am 19.0 21.9 18.3 96 0.4 CALM 0 0 0 0 - - 0.0
01/04:00am 19.7 22.9 18.9 95 0.5 CALM 0 0 0 0 - - 0.0
01/03:30am 20.0 23.3 19.2 95 0.5 CALM 0 0 0 0 - - 0.0
01/03:00am 20.1 23.4 19.1 94 0.6 CALM 0 0 0 0 - - 0.0
01/02:30am 20.8 24.4 19.8 94 0.6 CALM 0 0 0 0 - - 0.0
01/02:00am 21.2 24.8 19.8 92 0.9 CALM 0 2 0 1 - - 0.0
01/01:30am 21.6 25.3 19.9 90 1.1 CALM 0 2 0 1 - - 0.0
01/01:00am 21.9 25.2 20.0 89 1.2 NNE 2 6 1 3 - - 0.0
01/12:30am 22.1 25.1 20.0 88 1.3 NE 4 7 2 4 - - 0.0
01/12:00am 22.8 25.4 20.5 87 1.5 NE 7 9 4 5 - - 0.0
 
Date/Time
EDT
Tmp

°C
App
Tmp
°C
Dew
Point
°C
Rel
Hum
%
Delta-T

°C
Wind Press
QNH
hPa
Press
MSL
hPa
Rain
since
9 am
mm
Dir
 
Spd
km/h
Gust
km/h
Spd
kts
Gust
kts
28/11:30pm 22.3 25.5 20.6 90 1.1 NNE 4 11 2 6 - - 0.0
28/11:00pm 22.4 25.8 20.9 91 1.0 NNE 4 7 2 4 - - 0.0
28/10:30pm 22.8 25.9 21.1 90 1.1 NNE 6 11 3 6 - - 0.0

Latest Capital City Observations: Canberra | Sydney | Melbourne | Brisbane | Adelaide | Perth | Hobart | Darwin

Other Formats:

Comma delimited format used in spreadsheet applications
http://www.bom.gov.au/fwo/IDN60901/IDN60901.94782.axf

JavaScript Object Notation format (JSON) in row-major order
http://www.bom.gov.au/fwo/IDN60901/IDN60901.94782.json